createdAt,value
2023-04-02T00:00:48.276Z,100430.22
2023-04-02T00:03:15.460Z,100433.75
2023-04-02T00:05:52.212Z,100438.94
2023-04-02T00:08:28.826Z,100460.31
2023-04-02T00:10:57.025Z,100470.09
2023-04-02T00:13:29.233Z,100471.06
2023-04-02T00:15:57.799Z,100480.69
2023-04-02T00:18:24.934Z,100485.94
2023-04-02T00:20:54.066Z,100483.94
2023-04-02T00:23:21.498Z,100468.53
2023-04-02T00:25:47.897Z,100460.88
2023-04-02T00:28:15.310Z,100456.06
2023-04-02T00:30:48.041Z,100446.16
2023-04-02T00:33:18.483Z,100448.84
2023-04-02T00:35:45.017Z,100433.00
2023-04-02T00:38:15.723Z,100434.97
2023-04-02T00:40:42.143Z,100427.34
2023-04-02T00:43:08.714Z,100419.44
2023-04-02T00:45:38.045Z,100424.81
2023-04-02T00:48:24.764Z,100428.50
2023-04-02T00:50:51.373Z,100426.78
2023-04-02T00:53:22.328Z,100432.88
2023-04-02T00:55:48.777Z,100420.44
2023-04-02T00:58:17.371Z,100431.31
2023-04-02T01:00:44.435Z,100414.50
2023-04-02T01:03:17.166Z,100425.38
2023-04-02T01:05:45.327Z,100410.97
2023-04-02T01:08:23.400Z,100411.66
2023-04-02T01:10:57.719Z,100393.53
2023-04-02T01:13:24.108Z,100398.75
2023-04-02T01:15:56.865Z,100407.97
2023-04-02T01:18:38.315Z,100412.63
2023-04-02T01:21:04.709Z,100398.34
2023-04-02T01:23:34.686Z,100391.28
2023-04-02T01:26:27.456Z,100402.88
2023-04-02T01:28:57.044Z,100397.34
2023-04-02T01:31:23.625Z,100398.22
2023-04-02T01:33:50.179Z,100399.91
2023-04-02T01:36:34.876Z,100396.22
2023-04-02T01:39:02.278Z,100399.63
2023-04-02T01:41:55.437Z,100381.66
2023-04-02T01:44:25.115Z,100382.34
2023-04-02T01:46:52.362Z,100373.44
2023-04-02T01:49:21.190Z,100378.81
2023-04-02T01:51:51.634Z,100378.97
2023-04-02T01:54:18.122Z,100412.75
2023-04-02T01:56:44.643Z,100391.25
2023-04-02T01:59:11.616Z,100391.25
2023-04-02T02:01:40.336Z,100391.25
2023-04-02T02:04:06.758Z,100401.19
2023-04-02T02:06:33.223Z,100397.47
2023-04-02T02:09:01.334Z,100399.31
2023-04-02T02:11:29.322Z,100405.72
2023-04-02T02:14:02.401Z,100415.59
2023-04-02T02:16:29.517Z,100406.69
2023-04-02T02:19:02.843Z,100396.06
2023-04-02T02:21:32.329Z,100404.84
2023-04-02T02:23:58.783Z,100396.94
2023-04-02T02:26:25.238Z,100402.31
2023-04-02T02:28:51.754Z,100394.38
2023-04-02T02:31:19.989Z,100402.31
2023-04-02T02:33:47.465Z,100397.91
2023-04-02T02:36:16.327Z,100408.66
2023-04-02T02:38:45.770Z,100404.31
2023-04-02T02:41:18.109Z,100412.19
2023-04-02T02:43:46.814Z,100416.75
2023-04-02T02:46:14.120Z,100420.44
2023-04-02T02:48:40.703Z,100425.09
2023-04-02T02:51:08.802Z,100414.50
2023-04-02T02:53:36.328Z,100419.03
2023-04-02T02:56:02.778Z,100425.25
2023-04-02T02:58:31.382Z,100422.69
2023-04-02T03:00:58.885Z,100436.13
2023-04-02T03:03:27.483Z,100430.75
2023-04-02T03:05:55.251Z,100430.63
2023-04-02T03:08:26.600Z,100440.22
2023-04-02T03:10:57.354Z,100453.53
2023-04-02T03:13:24.933Z,100446.31
2023-04-02T03:15:51.361Z,100455.22
2023-04-02T03:18:20.624Z,100453.41
2023-04-02T03:20:48.450Z,100463.28
2023-04-02T03:23:14.807Z,100463.28
2023-04-02T03:25:46.661Z,100475.88
2023-04-02T03:28:14.389Z,100470.50
2023-04-02T03:30:46.928Z,100461.47
2023-04-02T03:33:14.395Z,100463.84
2023-04-02T03:35:48.395Z,100470.22
2023-04-02T03:38:24.984Z,100468.25
2023-04-02T03:40:57.543Z,100467.09
2023-04-02T03:43:25.047Z,100465.97
2023-04-02T03:45:52.124Z,100468.53
2023-04-02T03:48:21.565Z,100468.34
2023-04-02T03:50:52.567Z,100470.06
2023-04-02T03:53:19.063Z,100485.19
2023-04-02T03:55:45.479Z,100485.19
2023-04-02T03:58:14.961Z,100477.00
2023-04-02T04:00:44.441Z,100476.84
2023-04-02T04:03:22.243Z,100497.34
2023-04-02T04:05:50.084Z,100482.94
2023-04-02T04:08:25.107Z,100490.16
2023-04-02T04:10:56.499Z,100477.56
2023-04-02T04:13:25.900Z,100480.94
2023-04-02T04:15:54.659Z,100486.34
2023-04-02T04:18:21.562Z,100486.34
2023-04-02T04:20:56.583Z,100482.94
2023-04-02T04:23:33.274Z,100485.50
2023-04-02T04:26:09.705Z,100510.41
2023-04-02T04:28:39.429Z,100506.56
2023-04-02T04:31:11.758Z,100509.97
2023-04-02T04:33:42.072Z,100519.72
2023-04-02T04:36:30.253Z,100523.41
2023-04-02T04:39:00.696Z,100536.03
2023-04-02T04:41:28.416Z,100531.63
2023-04-02T04:44:13.159Z,100527.38
2023-04-02T04:46:44.803Z,100540.13
2023-04-02T04:49:12.415Z,100541.41
2023-04-02T04:51:43.069Z,100544.09
2023-04-02T04:54:11.104Z,100553.00
2023-04-02T04:56:37.526Z,100570.13
2023-04-02T04:59:24.337Z,100550.31
2023-04-02T05:01:53.466Z,100561.06
2023-04-02T05:04:28.092Z,100562.91
2023-04-02T05:06:56.147Z,100560.34
2023-04-02T05:09:31.547Z,100560.50
2023-04-02T05:12:11.072Z,100570.53
2023-04-02T05:14:37.512Z,100569.56
2023-04-02T05:17:04.846Z,100574.09
2023-04-02T05:19:45.442Z,100588.25
2023-04-02T05:22:41.427Z,100591.50
2023-04-02T05:25:37.587Z,100597.56
2023-04-02T05:28:13.209Z,100602.69
2023-04-02T05:30:49.434Z,100626.75
2023-04-02T05:33:21.301Z,100604.22
2023-04-02T05:35:49.559Z,100606.09
2023-04-02T05:38:39.361Z,100620.50
2023-04-02T05:41:26.992Z,100633.25
2023-04-02T05:43:59.143Z,100610.75
2023-04-02T05:46:27.344Z,100623.91
2023-04-02T05:48:57.370Z,100623.63
2023-04-02T05:51:31.286Z,100618.97
2023-04-02T05:53:58.821Z,100627.88
2023-04-02T05:56:26.356Z,100629.03
2023-04-02T05:58:55.221Z,100646.84
2023-04-02T06:01:30.947Z,100647.28
2023-04-02T06:03:59.506Z,100663.84
2023-04-02T06:06:28.336Z,100658.19
2023-04-02T06:08:59.066Z,100672.63
2023-04-02T06:11:27.340Z,100651.81
2023-04-02T06:13:53.891Z,100656.34
2023-04-02T06:16:20.329Z,100654.50
2023-04-02T06:18:46.753Z,100664.28
2023-04-02T06:21:14.506Z,100666.97
2023-04-02T06:23:42.712Z,100673.47
2023-04-02T06:26:28.899Z,100672.50
2023-04-02T06:29:01.708Z,100679.28
2023-04-02T06:31:48.905Z,100666.41
2023-04-02T06:34:25.295Z,100677.72
2023-04-02T06:36:54.567Z,100681.97
2023-04-02T06:39:22.900Z,100697.00
2023-04-02T06:41:56.894Z,100677.63
2023-04-02T06:44:23.375Z,100681.44
2023-04-02T06:46:53.773Z,100687.53
2023-04-02T06:49:31.012Z,100683.81
2023-04-02T06:51:58.058Z,100698.16
2023-04-02T06:54:24.438Z,100697.59
2023-04-02T06:56:52.050Z,100694.31
2023-04-02T06:59:18.807Z,100690.75
2023-04-02T07:01:47.135Z,100689.88
2023-04-02T07:04:13.621Z,100700.63
2023-04-02T07:06:40.121Z,100697.06
2023-04-02T07:09:06.920Z,100696.06
2023-04-02T07:11:33.604Z,100698.00
2023-04-02T07:14:00.059Z,100695.41
2023-04-02T07:16:27.324Z,100700.09
2023-04-02T07:18:55.472Z,100706.00
2023-04-02T07:21:22.239Z,100699.88
2023-04-02T07:23:48.646Z,100701.84
2023-04-02T07:26:16.461Z,100694.44
2023-04-02T07:28:43.134Z,100700.44
2023-04-02T07:31:24.329Z,100700.72
2023-04-02T07:33:51.077Z,100697.59
2023-04-02T07:36:18.961Z,100701.13
2023-04-02T07:38:45.446Z,100695.31
2023-04-02T07:41:12.138Z,100693.31
2023-04-02T07:43:38.963Z,100692.41
2023-04-02T07:46:05.941Z,100690.94
2023-04-02T07:48:32.395Z,100691.16
2023-04-02T07:50:59.060Z,100681.91
2023-04-02T07:53:35.593Z,100680.75
2023-04-02T07:56:03.997Z,100679.75
2023-04-02T07:58:30.946Z,100682.44
2023-04-02T08:00:57.538Z,100684.69
2023-04-02T08:03:24.175Z,100694.38
2023-04-02T08:05:57.056Z,100686.34
2023-04-02T08:08:23.993Z,100697.34
2023-04-02T08:10:50.933Z,100701.28
2023-04-02T08:13:17.779Z,100696.00
2023-04-02T08:15:44.324Z,100703.44
2023-04-02T08:18:10.977Z,100685.34
2023-04-02T08:20:37.667Z,100693.50
2023-04-02T08:23:04.391Z,100700.50
2023-04-02T08:25:30.909Z,100698.47
2023-04-02T08:27:57.522Z,100699.03
2023-04-02T08:30:23.960Z,100708.09
2023-04-02T08:32:50.495Z,100704.88
2023-04-02T08:35:17.261Z,100711.81
2023-04-02T08:37:43.706Z,100699.13
2023-04-02T08:40:16.453Z,100701.69
2023-04-02T08:42:49.319Z,100705.06
2023-04-02T08:45:24.879Z,100702.22
2023-04-02T08:47:53.946Z,100701.38
2023-04-02T08:50:36.853Z,100704.63
2023-04-02T08:53:04.729Z,100706.66
2023-04-02T08:55:35.725Z,100706.53
2023-04-02T08:58:17.574Z,100708.22
2023-04-02T09:00:44.485Z,100712.44
2023-04-02T09:03:15.585Z,100714.44
2023-04-02T09:05:42.619Z,100715.47
2023-04-02T09:08:16.515Z,100719.00
2023-04-02T09:10:45.521Z,100724.13
2023-04-02T09:13:25.733Z,100721.91
2023-04-02T09:15:57.007Z,100717.03
2023-04-02T09:18:23.522Z,100726.00
2023-04-02T09:20:50.253Z,100718.75
2023-04-02T09:23:20.937Z,100720.94
2023-04-02T09:25:57.413Z,100717.91
2023-04-02T09:28:27.911Z,100724.66
2023-04-02T09:30:57.341Z,100721.44
2023-04-02T09:33:42.156Z,100727.72
2023-04-02T09:36:17.430Z,100728.41
2023-04-02T09:38:57.076Z,100723.47
2023-04-02T09:41:23.487Z,100727.69
2023-04-02T09:43:49.952Z,100730.56
2023-04-02T09:46:18.118Z,100732.06
2023-04-02T09:48:45.574Z,100729.38
2023-04-02T09:51:13.499Z,100729.72
2023-04-02T09:53:42.611Z,100735.50
2023-04-02T09:56:10.501Z,100739.22
2023-04-02T09:58:36.954Z,100741.47
2023-04-02T10:01:03.491Z,100746.69
2023-04-02T10:03:32.932Z,100753.13
2023-04-02T10:06:05.636Z,100768.44
2023-04-02T10:08:32.164Z,100768.75
2023-04-02T10:11:08.835Z,100760.88
2023-04-02T10:13:43.610Z,100766.41
2023-04-02T10:16:25.585Z,100772.66
2023-04-02T10:18:58.472Z,100769.50
2023-04-02T10:21:26.916Z,100772.72
2023-04-02T10:23:53.930Z,100763.13
2023-04-02T10:26:29.560Z,100771.97
2023-04-02T10:28:56.072Z,100780.22
2023-04-02T10:31:31.729Z,100775.97
2023-04-02T10:34:01.236Z,100771.19
2023-04-02T10:36:48.279Z,100774.44
2023-04-02T10:39:25.780Z,100776.81
2023-04-02T10:42:07.335Z,100784.63
2023-04-02T10:44:37.432Z,100778.63
2023-04-02T10:47:13.798Z,100781.19
2023-04-02T10:49:47.116Z,100779.59
2023-04-02T10:52:16.973Z,100782.72
2023-04-02T10:54:53.113Z,100783.50
2023-04-02T10:57:22.332Z,100781.13
2023-04-02T10:59:57.882Z,100781.97
2023-04-02T11:02:26.326Z,100781.34
2023-04-02T11:07:21.195Z,100776.84
2023-04-02T11:09:48.610Z,100786.41
2023-04-02T11:12:42.035Z,100785.00
2023-04-02T11:15:15.567Z,100777.56
2023-04-02T11:17:42.489Z,100774.03
2023-04-02T11:20:27.777Z,100779.84
2023-04-02T11:23:09.849Z,100772.81
2023-04-02T11:25:36.642Z,100783.59
2023-04-02T11:28:13.309Z,100782.13
2023-04-02T11:30:39.676Z,100779.34
2023-04-02T11:33:42.105Z,100785.00
2023-04-02T11:36:29.338Z,100777.75
2023-04-02T11:39:01.918Z,100788.09
2023-04-02T11:42:06.705Z,100785.94
2023-04-02T11:44:33.156Z,100784.59
2023-04-02T11:47:16.514Z,100779.41
2023-04-02T11:50:09.371Z,100785.31
2023-04-02T11:52:36.150Z,100778.91
2023-04-02T11:55:14.797Z,100782.09
2023-04-02T11:57:44.488Z,100782.09
2023-04-02T12:00:12.938Z,100789.53
2023-04-02T12:02:45.550Z,100790.22
2023-04-02T12:05:24.114Z,100795.16
2023-04-02T12:07:55.808Z,100790.06
2023-04-02T12:10:23.544Z,100798.34
2023-04-02T12:12:50.863Z,100798.88
2023-04-02T12:15:44.228Z,100795.63
2023-04-02T12:18:21.284Z,100801.22
2023-04-02T12:20:56.036Z,100794.28
2023-04-02T12:23:32.740Z,100794.78
2023-04-02T12:26:00.451Z,100794.09
2023-04-02T12:28:31.225Z,100793.75
2023-04-02T12:31:10.001Z,100785.44
2023-04-02T12:33:39.457Z,100798.66
2023-04-02T12:36:18.198Z,100801.53
2023-04-02T12:38:45.830Z,100791.53
2023-04-02T12:41:41.536Z,100780.84
2023-04-02T12:44:15.544Z,100776.47
2023-04-02T12:46:42.262Z,100791.72
2023-04-02T12:49:27.523Z,100793.28
2023-04-02T12:51:54.510Z,100796.66
2023-04-02T12:54:21.043Z,100802.25
2023-04-02T12:56:48.175Z,100785.31
2023-04-02T12:59:26.923Z,100776.66
2023-04-02T13:01:57.343Z,100774.44
2023-04-02T13:04:23.826Z,100766.63
2023-04-02T13:07:00.589Z,100759.84
2023-04-02T13:09:39.897Z,100763.91
2023-04-02T13:12:07.190Z,100768.19
2023-04-02T13:14:33.593Z,100774.16
2023-04-02T13:16:59.996Z,100771.06
2023-04-02T13:19:28.470Z,100761.59
2023-04-02T13:21:55.965Z,100767.16
2023-04-02T13:24:23.447Z,100757.66
2023-04-02T13:26:51.065Z,100752.75
2023-04-02T13:29:30.959Z,100750.22
2023-04-02T13:31:59.194Z,100750.22
2023-04-02T13:34:25.851Z,100752.78
2023-04-02T13:36:52.309Z,100741.25
2023-04-02T13:39:20.505Z,100735.16
2023-04-02T13:41:51.629Z,100737.56
2023-04-02T13:44:19.219Z,100721.97
2023-04-02T13:46:45.703Z,100725.38
2023-04-02T13:49:12.109Z,100715.72
2023-04-02T13:51:44.417Z,100717.88
2023-04-02T13:54:14.159Z,100715.88
2023-04-02T13:56:41.269Z,100721.28
2023-04-02T13:59:07.633Z,100720.44
2023-04-02T14:01:34.636Z,100728.72
2023-04-02T14:04:01.596Z,100713.50
2023-04-02T14:06:49.100Z,100714.50
2023-04-02T14:09:24.630Z,100705.69
2023-04-02T14:12:09.599Z,100716.88
2023-04-02T14:14:52.356Z,100710.94
2023-04-02T14:17:18.724Z,100716.69
2023-04-02T14:19:45.253Z,100712.97
2023-04-02T14:22:14.396Z,100713.81
2023-04-02T14:24:45.072Z,100713.13
2023-04-02T14:27:30.566Z,100715.00
2023-04-02T14:29:59.394Z,100715.84
2023-04-02T14:32:44.358Z,100712.13
2023-04-02T14:35:13.842Z,100710.41
2023-04-02T14:37:46.393Z,100723.63
2023-04-02T14:40:18.773Z,100721.75
2023-04-02T14:43:05.779Z,100722.75
2023-04-02T14:46:01.809Z,100724.63
2023-04-02T14:48:43.732Z,100732.03
2023-04-02T14:51:12.776Z,100730.28
2023-04-02T14:53:51.539Z,100723.84
2023-04-02T14:56:18.065Z,100720.47
2023-04-02T14:58:46.883Z,100725.88
2023-04-02T15:01:27.214Z,100720.47
2023-04-02T15:03:58.493Z,100723.50
2023-04-02T15:06:27.302Z,100723.00
2023-04-02T15:09:09.462Z,100729.75
2023-04-02T15:11:37.508Z,100735.94
2023-04-02T15:14:22.300Z,100732.19
2023-04-02T15:16:48.870Z,100723.34
2023-04-02T15:19:16.308Z,100717.88
2023-04-02T15:24:40.966Z,100723.41
2023-04-02T15:27:26.196Z,100723.59
2023-04-02T15:29:55.281Z,100722.72
2023-04-02T15:32:33.844Z,100726.28
2023-04-02T15:35:03.062Z,100727.28
2023-04-02T15:37:29.529Z,100725.41
2023-04-02T15:40:16.590Z,100724.59
2023-04-02T15:43:06.353Z,100730.31
2023-04-02T15:45:33.890Z,100732.34
2023-04-02T15:48:04.265Z,100732.34
2023-04-02T15:50:37.946Z,100725.06
2023-04-02T15:53:34.106Z,100723.91
2023-04-02T15:56:06.517Z,100729.16
2023-04-02T15:58:35.939Z,100728.31
2023-04-02T16:01:06.172Z,100731.84
2023-04-02T16:03:32.629Z,100732.53
2023-04-02T16:06:10.846Z,100735.94
2023-04-02T16:08:43.661Z,100738.44
2023-04-02T16:11:11.962Z,100735.75
2023-04-02T16:13:39.182Z,100748.44
2023-04-02T16:16:09.953Z,100740.50
2023-04-02T16:18:55.310Z,100743.34
2023-04-02T16:21:23.041Z,100745.22
2023-04-02T16:23:49.516Z,100751.63
2023-04-02T16:26:16.101Z,100743.84
2023-04-02T16:28:51.802Z,100757.03
2023-04-02T16:31:20.457Z,100758.75
2023-04-02T16:34:05.723Z,100761.44
2023-04-02T16:36:52.479Z,100765.13
2023-04-02T16:39:24.983Z,100771.56
2023-04-02T16:42:13.053Z,100773.59
2023-04-02T16:44:39.515Z,100777.28
2023-04-02T16:47:17.957Z,100778.44
2023-04-02T16:49:44.461Z,100783.00
2023-04-02T16:52:32.851Z,100786.72
2023-04-02T16:55:19.685Z,100797.69
2023-04-02T16:57:58.170Z,100792.44
2023-04-02T17:00:30.849Z,100806.13
2023-04-02T17:03:16.203Z,100814.22
2023-04-02T17:05:51.831Z,100811.53
2023-04-02T17:08:27.152Z,100818.63
2023-04-02T17:10:57.714Z,100824.72
2023-04-02T17:13:26.233Z,100823.56
2023-04-02T17:16:13.468Z,100833.38
2023-04-02T17:18:40.832Z,100836.91
2023-04-02T17:21:08.955Z,100840.47
2023-04-02T17:23:58.705Z,100843.34
2023-04-02T17:26:27.130Z,100850.75
2023-04-02T17:28:53.748Z,100857.34
2023-04-02T17:31:22.028Z,100855.06
2023-04-02T17:33:48.903Z,100852.84
2023-04-02T17:36:22.603Z,100860.94
2023-04-02T17:38:51.405Z,100866.91
2023-04-02T17:41:17.867Z,100865.44
2023-04-02T17:43:49.647Z,100874.13
2023-04-02T17:46:31.553Z,100879.75
2023-04-02T17:49:07.217Z,100884.88
2023-04-02T17:51:36.720Z,100889.94
2023-04-02T17:54:06.401Z,100895.06
2023-04-02T17:56:41.617Z,100918.00
2023-04-02T17:59:08.042Z,100935.72
2023-04-02T18:01:35.797Z,100930.06
2023-04-02T18:04:21.030Z,100931.53
2023-04-02T18:06:55.251Z,100926.72
2023-04-02T18:09:25.912Z,100935.50
2023-04-02T18:11:56.935Z,100947.03
2023-04-02T18:14:41.785Z,100942.63
2023-04-02T18:17:19.825Z,100947.16
2023-04-02T18:20:09.598Z,100947.75
2023-04-02T18:22:39.398Z,100957.16
2023-04-02T18:25:21.937Z,100963.13
2023-04-02T18:27:55.212Z,100960.50
2023-04-02T18:30:48.075Z,100964.75
2023-04-02T18:33:19.827Z,100983.81
2023-04-02T18:35:59.971Z,100980.94
2023-04-02T18:38:33.268Z,100982.66
2023-04-02T18:41:02.648Z,100990.63
2023-04-02T18:43:32.885Z,100989.59
2023-04-02T18:46:18.193Z,100986.91
2023-04-02T18:49:20.862Z,100994.28
2023-04-02T18:51:49.024Z,101000.97
2023-04-02T18:54:18.696Z,101002.41
2023-04-02T18:56:45.388Z,101014.47
2023-04-02T18:59:12.054Z,101008.66
2023-04-02T19:01:46.244Z,101012.38
2023-04-02T19:04:34.226Z,101020.59
2023-04-02T19:07:03.387Z,101022.16
2023-04-02T19:09:34.494Z,101029.69
2023-04-02T19:12:01.415Z,101020.72
2023-04-02T19:14:29.936Z,101025.41
2023-04-02T19:17:17.798Z,101026.72
2023-04-02T19:20:03.098Z,101033.81
2023-04-02T19:22:34.080Z,101039.50
2023-04-02T19:25:19.430Z,101039.50
2023-04-02T19:28:04.610Z,101040.88
2023-04-02T19:30:43.373Z,101033.50
2023-04-02T19:33:28.700Z,101042.31
2023-04-02T19:36:16.767Z,101038.63
2023-04-02T19:38:49.430Z,101047.44
2023-04-02T19:41:19.027Z,101043.72
2023-04-02T19:43:45.828Z,101046.44
2023-04-02T19:46:12.334Z,101053.41
2023-04-02T19:48:51.266Z,101045.31
2023-04-02T19:51:18.050Z,101053.41
2023-04-02T19:53:44.753Z,101051.56
2023-04-02T19:56:14.879Z,101058.63
2023-04-02T19:58:44.194Z,101058.94
2023-04-02T20:01:13.049Z,101059.91
2023-04-02T20:03:39.792Z,101057.38
2023-04-02T20:06:06.622Z,101061.78
2023-04-02T20:08:35.341Z,101068.00
2023-04-02T20:11:02.496Z,101065.03
2023-04-02T20:13:29.211Z,101066.72
2023-04-02T20:15:59.033Z,101068.31
2023-04-02T20:18:26.535Z,101071.28
2023-04-02T20:20:53.081Z,101071.41
2023-04-02T20:23:20.911Z,101072.44
2023-04-02T20:25:48.266Z,101071.56
2023-04-02T20:28:17.602Z,101070.69
2023-04-02T20:30:44.541Z,101077.09
2023-04-02T20:33:11.567Z,101079.94
2023-04-02T20:35:38.613Z,101082.22
2023-04-02T20:38:08.424Z,101076.50
2023-04-02T20:40:46.190Z,101072.66
2023-04-02T20:43:13.261Z,101072.22
2023-04-02T20:45:42.525Z,101073.50
2023-04-02T20:48:12.271Z,101077.34
2023-04-02T20:50:39.293Z,101074.91
2023-04-02T20:53:15.320Z,101081.84
2023-04-02T20:55:42.245Z,101086.91
2023-04-02T20:58:08.863Z,101085.91
2023-04-02T21:00:35.968Z,101090.28
2023-04-02T21:03:05.728Z,101088.84
2023-04-02T21:05:32.273Z,101082.31
2023-04-02T21:07:59.013Z,101084.28
2023-04-02T21:10:32.488Z,101082.84
2023-04-02T21:12:59.128Z,101076.88
2023-04-02T21:15:26.075Z,101080.09
2023-04-02T21:17:52.878Z,101072.56
2023-04-02T21:20:22.188Z,101078.22
2023-04-02T21:22:48.742Z,101093.78
2023-04-02T21:25:15.556Z,101094.06
2023-04-02T21:27:42.555Z,101094.31
2023-04-02T21:30:09.677Z,101090.66
2023-04-02T21:32:36.541Z,101091.75
2023-04-02T21:35:13.776Z,101097.31
2023-04-02T21:37:40.458Z,101094.13
2023-04-02T21:40:07.432Z,101089.16
2023-04-02T21:42:36.044Z,101091.97
2023-04-02T21:45:02.781Z,101081.22
2023-04-02T21:47:29.413Z,101056.59
2023-04-02T21:49:55.932Z,101050.09
2023-04-02T21:52:22.732Z,101040.22
2023-04-02T21:54:52.334Z,101043.34
2023-04-02T21:57:19.304Z,101063.94
2023-04-02T21:59:45.887Z,101069.84
2023-04-02T22:02:12.652Z,101072.91
2023-04-02T22:04:40.915Z,101085.53
2023-04-02T22:07:07.522Z,101082.59
2023-04-02T22:09:36.741Z,101079.38
2023-04-02T22:12:03.269Z,101080.81
2023-04-02T22:14:29.841Z,101077.22
2023-04-02T22:16:58.821Z,101070.69
2023-04-02T22:19:25.753Z,101062.56
2023-04-02T22:21:53.119Z,101062.38
2023-04-02T22:24:22.005Z,101064.72
2023-04-02T22:26:48.483Z,101065.84
2023-04-02T22:29:14.875Z,101069.50
2023-04-02T22:31:41.546Z,101074.88
2023-04-02T22:34:07.987Z,101071.22
2023-04-02T22:36:34.774Z,101071.81
2023-04-02T22:39:01.802Z,101071.81
2023-04-02T22:41:28.985Z,101073.50
2023-04-02T22:43:56.100Z,101072.66
2023-04-02T22:46:22.862Z,101072.66
2023-04-02T22:48:49.594Z,101077.91
2023-04-02T22:51:16.644Z,101078.75
2023-04-02T22:53:43.180Z,101080.72
2023-04-02T22:56:10.490Z,101079.28
2023-04-02T22:58:36.993Z,101079.53
2023-04-02T23:01:07.414Z,101086.19
2023-04-02T23:03:33.934Z,101082.78
2023-04-02T23:06:01.037Z,101084.47
2023-04-02T23:08:27.502Z,101073.47
2023-04-02T23:10:59.937Z,101066.97
2023-04-02T23:13:26.483Z,101068.41
2023-04-02T23:15:52.929Z,101072.16
2023-04-02T23:18:19.397Z,101057.88
2023-04-02T23:20:45.784Z,101057.22
2023-04-02T23:23:12.224Z,101059.50
2023-04-02T23:25:39.049Z,101057.00
2023-04-02T23:28:05.699Z,101058.16
2023-04-02T23:30:32.129Z,101056.75
2023-04-02T23:32:58.638Z,101055.50
2023-04-02T23:35:25.396Z,101045.16
2023-04-02T23:37:51.779Z,101044.03
2023-04-02T23:40:18.292Z,101052.69
2023-04-02T23:42:44.690Z,101050.56
2023-04-02T23:45:11.208Z,101046.63
2023-04-02T23:47:37.653Z,101053.44
2023-04-02T23:50:04.225Z,101054.88
2023-04-02T23:52:30.850Z,101049.19
2023-04-02T23:54:57.281Z,101049.06
2023-04-02T23:57:23.759Z,101052.47
2023-04-02T23:59:50.256Z,101052.34
